sensor_id;sensor_type;location;lat;lon;timestamp;P1;durP1;ratioP1;P2;durP2;ratioP2
58466;SDS011;44255;49.244;7.726;2022-07-29T03:31:06;4.50;;;4.00;;
58466;SDS011;44255;49.244;7.726;2022-07-29T03:33:31;5.13;;;4.20;;
58466;SDS011;44255;49.244;7.726;2022-07-29T03:35:57;4.80;;;3.80;;
58466;SDS011;44255;49.244;7.726;2022-07-29T03:38:23;5.88;;;4.10;;
58466;SDS011;44255;49.244;7.726;2022-07-29T03:41:02;4.80;;;3.60;;
58466;SDS011;44255;49.244;7.726;2022-07-29T03:43:30;5.45;;;4.03;;
58466;SDS011;44255;49.244;7.726;2022-07-29T03:45:59;4.55;;;3.63;;
58466;SDS011;44255;49.244;7.726;2022-07-29T03:48:25;6.15;;;4.10;;
58466;SDS011;44255;49.244;7.726;2022-07-29T03:50:54;5.05;;;4.22;;
58466;SDS011;44255;49.244;7.726;2022-07-29T03:55:47;6.82;;;4.13;;
58466;SDS011;44255;49.244;7.726;2022-07-29T03:58:16;5.75;;;3.50;;
58466;SDS011;44255;49.244;7.726;2022-07-29T04:00:43;7.30;;;4.72;;
58466;SDS011;44255;49.244;7.726;2022-07-29T04:03:09;7.38;;;3.70;;
58466;SDS011;44255;49.244;7.726;2022-07-29T04:05:35;5.15;;;4.18;;
58466;SDS011;44255;49.244;7.726;2022-07-29T04:08:00;5.23;;;4.00;;
58466;SDS011;44255;49.244;7.726;2022-07-29T04:10:26;5.47;;;4.03;;
58466;SDS011;44255;49.244;7.726;2022-07-29T04:12:51;7.67;;;4.03;;
58466;SDS011;44255;49.244;7.726;2022-07-29T04:15:17;7.45;;;4.28;;
58466;SDS011;44255;49.244;7.726;2022-07-29T04:17:43;8.90;;;4.40;;
58466;SDS011;44255;49.244;7.726;2022-07-29T04:20:08;6.90;;;4.30;;
58466;SDS011;44255;49.244;7.726;2022-07-29T04:22:34;7.40;;;4.20;;
58466;SDS011;44255;49.244;7.726;2022-07-29T04:24:59;5.03;;;4.50;;
58466;SDS011;44255;49.244;7.726;2022-07-29T04:27:24;7.53;;;4.50;;
58466;SDS011;44255;49.244;7.726;2022-07-29T04:29:50;6.43;;;4.30;;
58466;SDS011;44255;49.244;7.726;2022-07-29T04:32:16;7.45;;;4.18;;
58466;SDS011;44255;49.244;7.726;2022-07-29T04:34:41;6.10;;;4.20;;
58466;SDS011;44255;49.244;7.726;2022-07-29T04:37:06;4.90;;;4.03;;
58466;SDS011;44255;49.244;7.726;2022-07-29T04:39:31;5.57;;;4.30;;
58466;SDS011;44255;49.244;7.726;2022-07-29T04:41:57;4.50;;;4.10;;
58466;SDS011;44255;49.244;7.726;2022-07-29T04:44:22;6.97;;;4.20;;
58466;SDS011;44255;49.244;7.726;2022-07-29T04:46:47;5.83;;;4.00;;
58466;SDS011;44255;49.244;7.726;2022-07-29T04:49:13;4.50;;;4.07;;
58466;SDS011;44255;49.244;7.726;2022-07-29T04:51:38;4.77;;;4.27;;
58466;SDS011;44255;49.244;7.726;2022-07-29T04:54:03;4.67;;;4.07;;
58466;SDS011;44255;49.244;7.726;2022-07-29T04:56:29;6.80;;;4.30;;
58466;SDS011;44255;49.244;7.726;2022-07-29T04:58:54;7.63;;;4.83;;
58466;SDS011;44255;49.244;7.726;2022-07-29T05:01:19;6.83;;;4.20;;
58466;SDS011;44255;49.244;7.726;2022-07-29T05:03:45;5.37;;;4.23;;
58466;SDS011;44255;49.244;7.726;2022-07-29T05:06:10;7.53;;;4.32;;
58466;SDS011;44255;49.244;7.726;2022-07-29T05:08:36;7.47;;;4.00;;
58466;SDS011;44255;49.244;7.726;2022-07-29T05:11:02;6.65;;;4.53;;
58466;SDS011;44255;49.244;7.726;2022-07-29T05:13:28;5.05;;;4.13;;
58466;SDS011;44255;49.244;7.726;2022-07-29T05:15:53;5.32;;;4.03;;
58466;SDS011;44255;49.244;7.726;2022-07-29T05:18:19;5.67;;;3.67;;
58466;SDS011;44255;49.244;7.726;2022-07-29T05:20:44;5.07;;;3.93;;
58466;SDS011;44255;49.244;7.726;2022-07-29T05:23:09;4.63;;;4.13;;
58466;SDS011;44255;49.244;7.726;2022-07-29T05:25:37;6.97;;;4.55;;
58466;SDS011;44255;49.244;7.726;2022-07-29T05:28:03;5.27;;;3.80;;
58466;SDS011;44255;49.244;7.726;2022-07-29T05:30:28;5.73;;;3.77;;
58466;SDS011;44255;49.244;7.726;2022-07-29T05:32:53;7.73;;;4.17;;
58466;SDS011;44255;49.244;7.726;2022-07-29T05:35:19;7.77;;;3.83;;
58466;SDS011;44255;49.244;7.726;2022-07-29T05:37:44;4.90;;;3.77;;
58466;SDS011;44255;49.244;7.726;2022-07-29T05:40:09;4.90;;;3.37;;
58466;SDS011;44255;49.244;7.726;2022-07-29T05:42:35;4.90;;;3.57;;
58466;SDS011;44255;49.244;7.726;2022-07-29T05:45:00;4.37;;;3.50;;
58466;SDS011;44255;49.244;7.726;2022-07-29T05:47:26;6.80;;;3.60;;
58466;SDS011;44255;49.244;7.726;2022-07-29T05:49:52;5.70;;;3.38;;
58466;SDS011;44255;49.244;7.726;2022-07-29T05:52:20;4.57;;;3.58;;
58466;SDS011;44255;49.244;7.726;2022-07-29T05:54:45;5.90;;;3.63;;
58466;SDS011;44255;49.244;7.726;2022-07-29T05:57:21;6.03;;;3.38;;
58466;SDS011;44255;49.244;7.726;2022-07-29T05:59:48;6.25;;;3.92;;
58466;SDS011;44255;49.244;7.726;2022-07-29T06:02:13;4.40;;;3.30;;
58466;SDS011;44255;49.244;7.726;2022-07-29T06:04:39;11.20;;;3.65;;
58466;SDS011;44255;49.244;7.726;2022-07-29T06:07:05;7.60;;;3.50;;
58466;SDS011;44255;49.244;7.726;2022-07-29T06:09:31;5.00;;;3.20;;
58466;SDS011;44255;49.244;7.726;2022-07-29T06:11:57;6.10;;;3.05;;
58466;SDS011;44255;49.244;7.726;2022-07-29T06:14:23;3.42;;;3.00;;
58466;SDS011;44255;49.244;7.726;2022-07-29T06:16:48;5.38;;;3.22;;
58466;SDS011;44255;49.244;7.726;2022-07-29T06:19:14;5.70;;;2.90;;
58466;SDS011;44255;49.244;7.726;2022-07-29T06:21:42;7.33;;;3.40;;
58466;SDS011;44255;49.244;7.726;2022-07-29T06:24:10;7.95;;;3.25;;
58466;SDS011;44255;49.244;7.726;2022-07-29T06:26:39;8.13;;;3.10;;
58466;SDS011;44255;49.244;7.726;2022-07-29T06:29:04;5.93;;;3.10;;
58466;SDS011;44255;49.244;7.726;2022-07-29T06:31:30;8.90;;;3.28;;
58466;SDS011;44255;49.244;7.726;2022-07-29T06:33:55;6.80;;;3.63;;
58466;SDS011;44255;49.244;7.726;2022-07-29T06:36:20;5.10;;;3.23;;
58466;SDS011;44255;49.244;7.726;2022-07-29T06:38:46;9.40;;;3.37;;
58466;SDS011;44255;49.244;7.726;2022-07-29T06:41:11;5.88;;;3.20;;
58466;SDS011;44255;49.244;7.726;2022-07-29T06:43:41;3.85;;;2.95;;
58466;SDS011;44255;49.244;7.726;2022-07-29T06:46:08;5.43;;;3.05;;
58466;SDS011;44255;49.244;7.726;2022-07-29T06:48:38;3.47;;;3.00;;
58466;SDS011;44255;49.244;7.726;2022-07-29T06:51:05;5.43;;;3.13;;
58466;SDS011;44255;49.244;7.726;2022-07-29T06:53:31;8.93;;;2.90;;
58466;SDS011;44255;49.244;7.726;2022-07-29T06:55:58;3.45;;;2.63;;
58466;SDS011;44255;49.244;7.726;2022-07-29T06:58:25;9.75;;;3.10;;
58466;SDS011;44255;49.244;7.726;2022-07-29T07:00:51;4.53;;;2.80;;
58466;SDS011;44255;49.244;7.726;2022-07-29T07:03:17;5.13;;;3.40;;
58466;SDS011;44255;49.244;7.726;2022-07-29T07:08:09;4.97;;;3.05;;
58466;SDS011;44255;49.244;7.726;2022-07-29T07:10:35;5.05;;;3.15;;
58466;SDS011;44255;49.244;7.726;2022-07-29T07:13:01;7.53;;;3.37;;
58466;SDS011;44255;49.244;7.726;2022-07-29T07:15:27;6.40;;;3.10;;
58466;SDS011;44255;49.244;7.726;2022-07-29T07:20:18;7.20;;;3.00;;
58466;SDS011;44255;49.244;7.726;2022-07-29T07:22:43;5.40;;;2.97;;
58466;SDS011;44255;49.244;7.726;2022-07-29T07:25:09;11.63;;;3.50;;
58466;SDS011;44255;49.244;7.726;2022-07-29T07:27:35;8.98;;;3.00;;
58466;SDS011;44255;49.244;7.726;2022-07-29T07:32:28;3.80;;;3.40;;
58466;SDS011;44255;49.244;7.726;2022-07-29T07:34:53;5.25;;;2.90;;
58466;SDS011;44255;49.244;7.726;2022-07-29T07:37:19;6.03;;;3.10;;
58466;SDS011;44255;49.244;7.726;2022-07-29T07:42:11;6.18;;;3.10;;
58466;SDS011;44255;49.244;7.726;2022-07-29T07:44:37;4.78;;;2.60;;
58466;SDS011;44255;49.244;7.726;2022-07-29T07:47:03;5.57;;;3.10;;
58466;SDS011;44255;49.244;7.726;2022-07-29T07:49:29;5.67;;;3.07;;
58466;SDS011;44255;49.244;7.726;2022-07-29T07:51:54;5.70;;;3.10;;
58466;SDS011;44255;49.244;7.726;2022-07-29T07:54:19;7.10;;;3.37;;
58466;SDS011;44255;49.244;7.726;2022-07-29T07:56:45;5.73;;;3.20;;
58466;SDS011;44255;49.244;7.726;2022-07-29T07:59:10;3.67;;;2.80;;
58466;SDS011;44255;49.244;7.726;2022-07-29T08:01:35;8.23;;;3.37;;
58466;SDS011;44255;49.244;7.726;2022-07-29T08:04:00;5.03;;;2.30;;
58466;SDS011;44255;49.244;7.726;2022-07-29T08:06:26;8.80;;;3.23;;
58466;SDS011;44255;49.244;7.726;2022-07-29T08:08:51;4.70;;;2.83;;
58466;SDS011;44255;49.244;7.726;2022-07-29T08:11:16;7.97;;;2.83;;
58466;SDS011;44255;49.244;7.726;2022-07-29T08:13:42;6.57;;;2.60;;
58466;SDS011;44255;49.244;7.726;2022-07-29T08:16:08;9.82;;;2.83;;
58466;SDS011;44255;49.244;7.726;2022-07-29T08:18:37;3.67;;;2.58;;
58466;SDS011;44255;49.244;7.726;2022-07-29T08:23:28;4.47;;;2.38;;
58466;SDS011;44255;49.244;7.726;2022-07-29T08:26:03;12.07;;;2.80;;
58466;SDS011;44255;49.244;7.726;2022-07-29T08:28:28;6.85;;;2.65;;
58466;SDS011;44255;49.244;7.726;2022-07-29T08:30:54;7.10;;;2.93;;
58466;SDS011;44255;49.244;7.726;2022-07-29T08:33:19;8.43;;;2.33;;
58466;SDS011;44255;49.244;7.726;2022-07-29T08:35:44;5.07;;;2.77;;
58466;SDS011;44255;49.244;7.726;2022-07-29T08:38:10;3.22;;;2.50;;
58466;SDS011;44255;49.244;7.726;2022-07-29T08:40:35;4.67;;;2.50;;
58466;SDS011;44255;49.244;7.726;2022-07-29T08:43:05;9.43;;;2.50;;
58466;SDS011;44255;49.244;7.726;2022-07-29T08:45:35;4.82;;;2.50;;
58466;SDS011;44255;49.244;7.726;2022-07-29T08:48:07;8.32;;;2.80;;
58466;SDS011;44255;49.244;7.726;2022-07-29T08:50:34;5.23;;;2.47;;
58466;SDS011;44255;49.244;7.726;2022-07-29T08:53:01;10.13;;;2.47;;
58466;SDS011;44255;49.244;7.726;2022-07-29T08:55:27;7.67;;;2.40;;
58466;SDS011;44255;49.244;7.726;2022-07-29T08:57:52;5.55;;;2.65;;
58466;SDS011;44255;49.244;7.726;2022-07-29T09:02:45;10.00;;;2.75;;
58466;SDS011;44255;49.244;7.726;2022-07-29T09:05:16;8.07;;;2.85;;
58466;SDS011;44255;49.244;7.726;2022-07-29T09:07:42;7.65;;;2.58;;
58466;SDS011;44255;49.244;7.726;2022-07-29T09:10:08;6.70;;;2.45;;
58466;SDS011;44255;49.244;7.726;2022-07-29T09:12:34;6.20;;;2.42;;
58466;SDS011;44255;49.244;7.726;2022-07-29T09:15:00;7.72;;;2.67;;
58466;SDS011;44255;49.244;7.726;2022-07-29T09:20:12;7.32;;;2.53;;
58466;SDS011;44255;49.244;7.726;2022-07-29T09:22:41;6.65;;;2.75;;
58466;SDS011;44255;49.244;7.726;2022-07-29T09:25:06;7.53;;;2.40;;
58466;SDS011;44255;49.244;7.726;2022-07-29T09:27:32;6.78;;;2.47;;
58466;SDS011;44255;49.244;7.726;2022-07-29T09:30:03;8.00;;;2.67;;
58466;SDS011;44255;49.244;7.726;2022-07-29T09:32:53;6.50;;;2.85;;
58466;SDS011;44255;49.244;7.726;2022-07-29T09:35:20;6.65;;;2.60;;
58466;SDS011;44255;49.244;7.726;2022-07-29T09:37:47;5.93;;;2.58;;
58466;SDS011;44255;49.244;7.726;2022-07-29T09:40:13;7.47;;;2.53;;
58466;SDS011;44255;49.244;7.726;2022-07-29T09:42:40;4.03;;;2.45;;
58466;SDS011;44255;49.244;7.726;2022-07-29T09:45:06;8.20;;;2.80;;
58466;SDS011;44255;49.244;7.726;2022-07-29T09:47:42;6.90;;;2.33;;
58466;SDS011;44255;49.244;7.726;2022-07-29T09:50:11;10.70;;;2.67;;
58466;SDS011;44255;49.244;7.726;2022-07-29T09:52:46;8.43;;;2.50;;
58466;SDS011;44255;49.244;7.726;2022-07-29T09:55:14;4.57;;;2.53;;
58466;SDS011;44255;49.244;7.726;2022-07-29T10:02:32;5.15;;;2.25;;
58466;SDS011;44255;49.244;7.726;2022-07-29T10:04:59;5.47;;;2.53;;
58466;SDS011;44255;49.244;7.726;2022-07-29T10:07:25;4.85;;;2.38;;
58466;SDS011;44255;49.244;7.726;2022-07-29T10:09:54;9.32;;;2.53;;
58466;SDS011;44255;49.244;7.726;2022-07-29T10:12:21;5.72;;;2.85;;
58466;SDS011;44255;49.244;7.726;2022-07-29T10:14:48;4.35;;;2.55;;
58466;SDS011;44255;49.244;7.726;2022-07-29T10:17:14;7.18;;;2.25;;
58466;SDS011;44255;49.244;7.726;2022-07-29T10:22:07;4.85;;;2.53;;
58466;SDS011;44255;49.244;7.726;2022-07-29T10:24:34;5.25;;;2.40;;
58466;SDS011;44255;49.244;7.726;2022-07-29T10:27:01;7.60;;;2.67;;
58466;SDS011;44255;49.244;7.726;2022-07-29T10:29:27;5.03;;;2.55;;
58466;SDS011;44255;49.244;7.726;2022-07-29T10:31:57;4.30;;;2.00;;
58466;SDS011;44255;49.244;7.726;2022-07-29T10:43:30;6.13;;;2.20;;
58466;SDS011;44255;49.244;7.726;2022-07-29T10:46:00;5.25;;;2.13;;
58466;SDS011;44255;49.244;7.726;2022-07-29T10:48:28;6.93;;;2.17;;
58466;SDS011;44255;49.244;7.726;2022-07-29T10:50:54;6.55;;;2.22;;
58466;SDS011;44255;49.244;7.726;2022-07-29T10:53:25;8.30;;;1.95;;
58466;SDS011;44255;49.244;7.726;2022-07-29T10:56:26;10.85;;;2.30;;
58466;SDS011;44255;49.244;7.726;2022-07-29T11:01:45;3.03;;;2.10;;
58466;SDS011;44255;49.244;7.726;2022-07-29T11:07:08;6.18;;;2.05;;
58466;SDS011;44255;49.244;7.726;2022-07-29T11:09:34;6.63;;;1.92;;
58466;SDS011;44255;49.244;7.726;2022-07-29T11:11:59;9.03;;;1.83;;
58466;SDS011;44255;49.244;7.726;2022-07-29T11:17:18;15.02;;;2.20;;
58466;SDS011;44255;49.244;7.726;2022-07-29T11:19:43;4.65;;;2.20;;
58466;SDS011;44255;49.244;7.726;2022-07-29T11:22:09;5.18;;;1.92;;
58466;SDS011;44255;49.244;7.726;2022-07-29T11:24:36;4.53;;;1.70;;
58466;SDS011;44255;49.244;7.726;2022-07-29T11:27:15;4.20;;;1.90;;
58466;SDS011;44255;49.244;7.726;2022-07-29T11:29:50;10.70;;;1.98;;
58466;SDS011;44255;49.244;7.726;2022-07-29T11:32:17;6.15;;;1.70;;
58466;SDS011;44255;49.244;7.726;2022-07-29T11:34:44;4.60;;;1.88;;
58466;SDS011;44255;49.244;7.726;2022-07-29T17:35:10;7.57;;;2.10;;
58466;SDS011;44255;49.244;7.726;2022-07-29T17:37:55;5.15;;;2.42;;
58466;SDS011;44255;49.244;7.726;2022-07-29T17:40:20;5.03;;;2.10;;
58466;SDS011;44255;49.244;7.726;2022-07-29T17:42:46;7.20;;;2.10;;
58466;SDS011;44255;49.244;7.726;2022-07-29T17:45:11;6.13;;;2.13;;
58466;SDS011;44255;49.244;7.726;2022-07-29T17:47:36;2.83;;;1.85;;
58466;SDS011;44255;49.244;7.726;2022-07-29T17:50:02;5.90;;;2.00;;
58466;SDS011;44255;49.244;7.726;2022-07-29T17:52:28;4.40;;;1.85;;
58466;SDS011;44255;49.244;7.726;2022-07-29T17:54:54;5.27;;;2.00;;
58466;SDS011;44255;49.244;7.726;2022-07-29T17:57:19;4.00;;;2.10;;
58466;SDS011;44255;49.244;7.726;2022-07-29T17:59:44;7.53;;;2.07;;
58466;SDS011;44255;49.244;7.726;2022-07-29T18:02:09;6.77;;;2.07;;
58466;SDS011;44255;49.244;7.726;2022-07-29T18:04:36;4.03;;;2.05;;
58466;SDS011;44255;49.244;7.726;2022-07-29T18:07:01;6.37;;;2.27;;
58466;SDS011;44255;49.244;7.726;2022-07-29T18:09:27;7.50;;;2.37;;
58466;SDS011;44255;49.244;7.726;2022-07-29T18:11:52;6.47;;;2.10;;
58466;SDS011;44255;49.244;7.726;2022-07-29T18:14:17;12.73;;;2.83;;
58466;SDS011;44255;49.244;7.726;2022-07-29T18:16:43;5.40;;;2.20;;
58466;SDS011;44255;49.244;7.726;2022-07-29T18:19:08;9.60;;;2.20;;
58466;SDS011;44255;49.244;7.726;2022-07-29T18:21:34;4.47;;;2.63;;
58466;SDS011;44255;49.244;7.726;2022-07-29T18:23:59;4.63;;;2.10;;
58466;SDS011;44255;49.244;7.726;2022-07-29T18:26:24;13.00;;;3.28;;
58466;SDS011;44255;49.244;7.726;2022-07-29T18:28:50;3.77;;;2.20;;
58466;SDS011;44255;49.244;7.726;2022-07-29T18:31:15;2.83;;;2.20;;
58466;SDS011;44255;49.244;7.726;2022-07-29T18:33:40;5.30;;;2.13;;
58466;SDS011;44255;49.244;7.726;2022-07-29T18:36:05;3.40;;;2.20;;
58466;SDS011;44255;49.244;7.726;2022-07-29T18:38:31;8.90;;;2.50;;
58466;SDS011;44255;49.244;7.726;2022-07-29T18:40:57;8.35;;;2.08;;
58466;SDS011;44255;49.244;7.726;2022-07-29T18:43:22;4.40;;;2.50;;
58466;SDS011;44255;49.244;7.726;2022-07-29T18:45:47;6.13;;;2.63;;
58466;SDS011;44255;49.244;7.726;2022-07-29T18:48:13;5.72;;;2.13;;
58466;SDS011;44255;49.244;7.726;2022-07-29T18:50:40;4.80;;;2.22;;
58466;SDS011;44255;49.244;7.726;2022-07-29T18:53:05;5.88;;;2.38;;
58466;SDS011;44255;49.244;7.726;2022-07-29T18:55:30;5.47;;;2.57;;
58466;SDS011;44255;49.244;7.726;2022-07-29T18:57:56;8.60;;;2.50;;
58466;SDS011;44255;49.244;7.726;2022-07-29T19:00:21;7.07;;;2.97;;
58466;SDS011;44255;49.244;7.726;2022-07-29T19:05:12;6.63;;;2.30;;
58466;SDS011;44255;49.244;7.726;2022-07-29T19:07:38;4.47;;;2.30;;
58466;SDS011;44255;49.244;7.726;2022-07-29T19:10:04;5.40;;;2.67;;
58466;SDS011;44255;49.244;7.726;2022-07-29T19:12:29;3.72;;;2.15;;
58466;SDS011;44255;49.244;7.726;2022-07-29T19:14:55;5.13;;;2.63;;
58466;SDS011;44255;49.244;7.726;2022-07-29T19:17:20;7.10;;;2.92;;
58466;SDS011;44255;49.244;7.726;2022-07-29T19:19:46;9.20;;;3.47;;
58466;SDS011;44255;49.244;7.726;2022-07-29T19:22:11;7.95;;;3.08;;
58466;SDS011;44255;49.244;7.726;2022-07-29T19:24:38;7.03;;;2.67;;
58466;SDS011;44255;49.244;7.726;2022-07-29T19:27:04;9.43;;;2.72;;
58466;SDS011;44255;49.244;7.726;2022-07-29T19:29:29;7.60;;;2.70;;
58466;SDS011;44255;49.244;7.726;2022-07-29T19:31:56;5.82;;;2.70;;
58466;SDS011;44255;49.244;7.726;2022-07-29T19:34:24;5.68;;;2.95;;
58466;SDS011;44255;49.244;7.726;2022-07-29T19:36:49;7.50;;;2.53;;
58466;SDS011;44255;49.244;7.726;2022-07-29T19:39:14;7.60;;;2.60;;
58466;SDS011;44255;49.244;7.726;2022-07-29T19:41:39;5.13;;;2.70;;
58466;SDS011;44255;49.244;7.726;2022-07-29T19:44:05;7.33;;;3.20;;
58466;SDS011;44255;49.244;7.726;2022-07-29T19:46:30;7.10;;;2.60;;
58466;SDS011;44255;49.244;7.726;2022-07-29T19:48:55;4.60;;;2.60;;
58466;SDS011;44255;49.244;7.726;2022-07-29T19:51:21;5.47;;;2.83;;
58466;SDS011;44255;49.244;7.726;2022-07-29T19:53:48;7.80;;;2.85;;
58466;SDS011;44255;49.244;7.726;2022-07-29T19:56:14;6.45;;;2.67;;
58466;SDS011;44255;49.244;7.726;2022-07-29T19:58:39;5.30;;;3.10;;
58466;SDS011;44255;49.244;7.726;2022-07-29T20:01:05;7.07;;;3.27;;
58466;SDS011;44255;49.244;7.726;2022-07-29T20:03:30;6.97;;;2.85;;
58466;SDS011;44255;49.244;7.726;2022-07-29T20:05:55;5.93;;;2.73;;
58466;SDS011;44255;49.244;7.726;2022-07-29T20:08:21;7.35;;;2.67;;
58466;SDS011;44255;49.244;7.726;2022-07-29T20:10:46;8.43;;;3.30;;
58466;SDS011;44255;49.244;7.726;2022-07-29T20:13:11;6.80;;;3.10;;
58466;SDS011;44255;49.244;7.726;2022-07-29T20:15:37;3.83;;;2.83;;
58466;SDS011;44255;49.244;7.726;2022-07-29T20:18:02;7.70;;;3.30;;
58466;SDS011;44255;49.244;7.726;2022-07-29T20:20:27;5.78;;;3.17;;
58466;SDS011;44255;49.244;7.726;2022-07-29T20:22:56;7.20;;;3.20;;
58466;SDS011;44255;49.244;7.726;2022-07-29T20:25:22;4.40;;;2.97;;
58466;SDS011;44255;49.244;7.726;2022-07-29T20:27:48;9.05;;;3.45;;
58466;SDS011;44255;49.244;7.726;2022-07-29T20:30:16;8.70;;;2.92;;
58466;SDS011;44255;49.244;7.726;2022-07-29T20:32:45;6.95;;;2.72;;
58466;SDS011;44255;49.244;7.726;2022-07-29T20:35:11;6.22;;;2.80;;
58466;SDS011;44255;49.244;7.726;2022-07-29T20:37:37;5.28;;;2.80;;
58466;SDS011;44255;49.244;7.726;2022-07-29T20:40:03;5.78;;;2.80;;
58466;SDS011;44255;49.244;7.726;2022-07-29T20:42:29;14.20;;;3.30;;
58466;SDS011;44255;49.244;7.726;2022-07-29T20:44:54;6.72;;;2.75;;
58466;SDS011;44255;49.244;7.726;2022-07-29T20:47:21;7.18;;;3.03;;
58466;SDS011;44255;49.244;7.726;2022-07-29T20:49:47;6.63;;;3.60;;
58466;SDS011;44255;49.244;7.726;2022-07-29T20:52:12;6.53;;;3.30;;
58466;SDS011;44255;49.244;7.726;2022-07-29T20:54:38;5.37;;;3.07;;
58466;SDS011;44255;49.244;7.726;2022-07-29T20:57:03;6.27;;;3.10;;
58466;SDS011;44255;49.244;7.726;2022-07-29T20:59:28;6.00;;;3.00;;
